Time;durP1;ratioP1;P1;durP2;ratioP2;P2;SDS_P1;SDS_P2;PMS_P1;PMS_P2;Temp;Humidity;BMP_temperature;BMP_pressure;BME280_temperature;BME280_humidity;BME280_pressure;Samples;Min_cycle;Max_cycle;Signal;HPM_P1;HPM_P2
2023/08/15 00:01:49;;;;;;;7.07;4.25;;;25.20;66.10;;;;;;4869339;28;88899;-85
2023/08/15 00:04:15;;;;;;;6.18;4.38;;;25.20;65.20;;;;;;4869155;28;88100;-85
2023/08/15 00:06:40;;;;;;;7.05;4.32;;;25.20;65.10;;;;;;4899793;28;89227;-85
2023/08/15 00:09:06;;;;;;;5.10;3.55;;;25.20;64.90;;;;;;4870473;28;88100;-85
2023/08/15 00:11:32;;;;;;;4.65;3.60;;;25.20;65.10;;;;;;4869534;28;89121;-85
2023/08/15 00:13:57;;;;;;;6.70;4.45;;;25.20;65.00;;;;;;4869374;28;88232;-85
2023/08/15 00:16:23;;;;;;;8.05;5.10;;;25.20;65.20;;;;;;4900172;28;88295;-85
2023/08/15 00:18:49;;;;;;;4.35;3.40;;;25.20;65.20;;;;;;4868962;28;87425;-85
2023/08/15 00:21:14;;;;;;;8.20;4.72;;;25.20;65.20;;;;;;4867794;28;89149;-85
2023/08/15 00:23:40;;;;;;;8.40;4.97;;;25.20;65.10;;;;;;4870122;28;88446;-85
2023/08/15 00:26:05;;;;;;;6.47;4.20;;;25.20;65.40;;;;;;4869905;28;87472;-85
2023/08/15 00:28:31;;;;;;;7.53;4.63;;;25.20;65.50;;;;;;4869720;28;87716;-85
2023/08/15 00:30:57;;;;;;;6.25;3.75;;;25.20;65.70;;;;;;4868077;28;90977;-85
2023/08/15 00:33:22;;;;;;;5.95;3.72;;;25.20;65.30;;;;;;4869504;28;88593;-85
2023/08/15 00:35:48;;;;;;;6.13;4.05;;;25.20;65.40;;;;;;4870538;28;87292;-85
2023/08/15 00:38:14;;;;;;;7.38;4.53;;;25.20;65.50;;;;;;4869431;28;87464;-85
2023/08/15 00:40:39;;;;;;;6.60;4.15;;;25.20;65.40;;;;;;4869252;28;88641;-85
2023/08/15 00:43:06;;;;;;;5.70;3.97;;;25.20;65.40;;;;;;4867677;28;87678;-85
2023/08/15 00:45:34;;;;;;;5.90;4.13;;;25.20;65.60;;;;;;4870095;28;88571;-85
2023/08/15 00:47:59;;;;;;;7.03;3.97;;;25.20;65.40;;;;;;4870999;28;86970;-85
2023/08/15 00:50:26;;;;;;;6.35;4.40;;;25.20;65.40;;;;;;4869186;28;88933;-85
2023/08/15 00:52:52;;;;;;;7.13;4.40;;;25.20;65.30;;;;;;4868855;28;90500;-85
2023/08/15 00:55:18;;;;;;;5.80;3.97;;;25.20;65.70;;;;;;4868857;28;89143;-85
2023/08/15 00:57:44;;;;;;;5.25;3.97;;;25.20;65.60;;;;;;4868324;28;87644;-85
2023/08/15 01:00:11;;;;;;;5.32;4.03;;;25.20;65.60;;;;;;4867048;28;88197;-85
2023/08/15 01:02:38;;;;;;;5.05;3.95;;;25.20;65.90;;;;;;4869675;28;87977;-85
2023/08/15 01:05:05;;;;;;;8.48;4.68;;;25.20;65.80;;;;;;4868608;28;87881;-85
2023/08/15 01:07:31;;;;;;;6.40;4.63;;;25.10;65.60;;;;;;4868735;28;88772;-85
2023/08/15 01:09:56;;;;;;;7.47;4.18;;;25.10;65.80;;;;;;4867501;28;91256;-85
2023/08/15 01:12:47;;;;;;;5.78;3.95;;;25.20;65.70;;;;;;4867705;28;89976;-85
2023/08/15 01:15:20;;;;;;;6.80;4.43;;;25.10;66.60;;;;;;4868661;28;87470;-84
2023/08/15 01:17:57;;;;;;;6.97;4.28;;;25.10;65.60;;;;;;4869330;28;88265;-85
2023/08/15 01:20:33;;;;;;;8.55;3.75;;;25.10;65.80;;;;;;4867881;28;89257;-85
2023/08/15 01:23:01;;;;;;;7.85;4.30;;;25.10;65.60;;;;;;4868331;28;88930;-85
2023/08/15 01:25:27;;;;;;;6.95;4.15;;;25.20;65.80;;;;;;4866976;28;88295;-85
2023/08/15 01:27:53;;;;;;;5.50;4.05;;;25.20;65.80;;;;;;4867511;28;90183;-85
2023/08/15 01:30:22;;;;;;;6.38;4.22;;;25.20;65.80;;;;;;4869141;28;87913;-85
2023/08/15 01:33:03;;;;;;;4.45;3.55;;;25.10;65.60;;;;;;4869651;28;87914;-85
2023/08/15 01:35:38;;;;;;;5.78;3.65;;;25.10;65.50;;;;;;4867908;28;87536;-85
2023/08/15 01:38:32;;;;;;;6.35;3.97;;;25.10;65.40;;;;;;4867647;28;88625;-85
2023/08/15 01:41:00;;;;;;;6.53;4.22;;;25.10;65.70;;;;;;4866858;28;87510;-85
2023/08/15 01:43:27;;;;;;;7.93;3.75;;;25.10;65.50;;;;;;4869952;28;87788;-85
2023/08/15 01:45:53;;;;;;;8.10;4.30;;;25.10;65.60;;;;;;4898558;28;88886;-85
2023/08/15 01:48:18;;;;;;;6.75;4.10;;;25.10;65.40;;;;;;4867821;28;88416;-85
2023/08/15 01:50:44;;;;;;;4.70;3.55;;;25.10;65.60;;;;;;4866864;28;93112;-85
2023/08/15 01:53:10;;;;;;;5.38;4.05;;;25.10;65.50;;;;;;4867212;28;88757;-85
2023/08/15 01:55:35;;;;;;;5.82;4.00;;;25.10;65.60;;;;;;4867166;28;87884;-85
2023/08/15 01:58:01;;;;;;;6.47;3.70;;;25.10;65.60;;;;;;4868948;28;87764;-85
2023/08/15 02:00:27;;;;;;;6.95;4.07;;;25.10;65.50;;;;;;4869005;28;87862;-85
2023/08/15 02:02:52;;;;;;;6.47;4.35;;;25.10;65.40;;;;;;4868647;28;90195;-85
2023/08/15 02:05:18;;;;;;;5.00;3.83;;;25.10;65.70;;;;;;4868488;28;88029;-85
2023/08/15 02:07:44;;;;;;;4.35;3.78;;;25.10;65.50;;;;;;4898417;28;88124;-85
2023/08/15 02:10:10;;;;;;;5.72;3.67;;;25.10;65.40;;;;;;4865901;28;90451;-85
2023/08/15 02:12:35;;;;;;;5.22;3.88;;;25.10;65.50;;;;;;4868546;28;89620;-85
2023/08/15 02:15:04;;;;;;;5.82;3.92;;;25.10;65.50;;;;;;4869440;28;87980;-85
2023/08/15 02:17:29;;;;;;;5.90;4.00;;;25.10;65.50;;;;;;4899508;28;90284;-85
2023/08/15 02:19:56;;;;;;;7.65;3.92;;;25.10;65.50;;;;;;4866706;28;90759;-85
2023/08/15 02:22:21;;;;;;;5.97;4.30;;;25.10;65.60;;;;;;4868652;28;87586;-85
2023/08/15 02:24:47;;;;;;;5.30;3.80;;;25.10;65.50;;;;;;4866277;28;88369;-85
2023/08/15 02:27:12;;;;;;;5.63;3.50;;;25.10;65.40;;;;;;4868711;28;87588;-85
2023/08/15 02:29:38;;;;;;;7.47;3.97;;;25.10;65.40;;;;;;4869049;28;87170;-85
2023/08/15 02:32:04;;;;;;;5.65;3.58;;;25.10;65.60;;;;;;4868184;28;87311;-85
2023/08/15 02:34:29;;;;;;;4.55;3.60;;;25.00;65.60;;;;;;4867834;28;89066;-85
2023/08/15 02:36:55;;;;;;;6.07;3.58;;;25.00;65.70;;;;;;4866855;28;88375;-86
2023/08/15 02:39:20;;;;;;;5.63;3.63;;;25.00;65.60;;;;;;4868298;28;88570;-85
2023/08/15 02:41:46;;;;;;;7.57;3.80;;;25.00;65.60;;;;;;4867569;28;90299;-85
2023/08/15 02:44:12;;;;;;;4.93;3.33;;;25.00;65.50;;;;;;4867400;28;88230;-85
2023/08/15 02:46:38;;;;;;;4.82;3.67;;;25.00;65.60;;;;;;4866133;28;89121;-84
2023/08/15 02:49:05;;;;;;;5.88;3.58;;;25.00;65.60;;;;;;4868199;28;87918;-85
2023/08/15 02:51:31;;;;;;;4.68;3.58;;;25.00;65.30;;;;;;4867885;28;87481;-85
2023/08/15 02:53:56;;;;;;;5.63;3.92;;;25.00;65.30;;;;;;4867402;28;87444;-85
2023/08/15 02:56:22;;;;;;;5.68;3.92;;;25.00;65.20;;;;;;4898102;28;88379;-85
2023/08/15 02:58:47;;;;;;;6.05;3.60;;;25.00;65.30;;;;;;4866096;28;89937;-85
2023/08/15 03:01:13;;;;;;;5.75;3.90;;;25.00;65.10;;;;;;4896882;28;89895;-85
2023/08/15 03:03:39;;;;;;;5.63;3.58;;;25.00;65.30;;;;;;4868395;28;87492;-85
2023/08/15 03:06:05;;;;;;;5.13;3.40;;;25.00;65.20;;;;;;4869340;28;87844;-85
2023/08/15 03:08:30;;;;;;;4.75;3.50;;;25.00;65.30;;;;;;4868476;28;92174;-85
2023/08/15 03:10:58;;;;;;;5.82;3.58;;;25.00;65.20;;;;;;4868070;28;87958;-85
2023/08/15 03:13:23;;;;;;;5.72;3.90;;;25.00;65.20;;;;;;4866000;28;88521;-85
2023/08/15 03:15:53;;;;;;;4.45;3.20;;;25.00;65.10;;;;;;4867821;28;87470;-85
2023/08/15 03:18:19;;;;;;;4.70;3.38;;;25.00;65.10;;;;;;4866778;28;87874;-85
2023/08/15 03:20:53;;;;;;;6.85;3.88;;;25.00;65.10;;;;;;4865877;28;88017;-85
2023/08/15 03:23:19;;;;;;;5.20;3.15;;;25.00;65.10;;;;;;4866702;28;88366;-85
2023/08/15 03:25:52;;;;;;;5.88;3.63;;;25.00;65.00;;;;;;4866982;28;87668;-85
2023/08/15 03:28:18;;;;;;;6.00;3.70;;;25.00;65.10;;;;;;4867666;28;88380;-85
2023/08/15 03:30:43;;;;;;;4.82;3.30;;;25.00;65.00;;;;;;4867778;28;87993;-85
2023/08/15 03:33:09;;;;;;;4.97;3.63;;;25.00;64.90;;;;;;4865959;28;87791;-85
2023/08/15 03:35:34;;;;;;;4.20;2.88;;;25.00;65.00;;;;;;4867031;28;87349;-85
2023/08/15 03:38:00;;;;;;;5.35;3.70;;;25.00;64.90;;;;;;4866705;28;87803;-85
2023/08/15 03:40:26;;;;;;;3.45;2.85;;;24.90;64.90;;;;;;4863898;28;88520;-85
2023/08/15 03:42:51;;;;;;;4.38;3.00;;;25.00;65.00;;;;;;4867239;28;87239;-85
2023/08/15 03:45:17;;;;;;;5.72;3.65;;;25.00;64.90;;;;;;4865990;28;87688;-85
2023/08/15 03:47:42;;;;;;;6.57;3.13;;;24.90;64.90;;;;;;4866035;28;89086;-85
2023/08/15 03:50:08;;;;;;;6.18;3.30;;;24.90;65.00;;;;;;4865846;28;88140;-85
2023/08/15 03:52:35;;;;;;;4.32;2.85;;;25.00;65.00;;;;;;4866438;28;87372;-85
2023/08/15 03:55:02;;;;;;;6.18;3.75;;;24.90;64.80;;;;;;4865097;28;88912;-85
2023/08/15 03:57:27;;;;;;;4.82;3.20;;;24.90;64.90;;;;;;4865643;28;88887;-84
2023/08/15 03:59:53;;;;;;;5.32;3.53;;;24.90;64.90;;;;;;4865569;28;88928;-85
2023/08/15 04:02:18;;;;;;;4.53;3.17;;;25.00;64.90;;;;;;4866929;28;87144;-85
2023/08/15 04:04:44;;;;;;;4.05;2.88;;;25.00;64.90;;;;;;4867330;28;87166;-85
2023/08/15 04:07:10;;;;;;;5.15;3.15;;;24.90;64.80;;;;;;4867333;28;88103;-85
2023/08/15 04:09:35;;;;;;;4.63;3.10;;;24.90;64.90;;;;;;4867176;28;88077;-85
2023/08/15 04:12:01;;;;;;;3.75;2.85;;;24.90;64.80;;;;;;4867872;28;88830;-85
2023/08/15 04:14:27;;;;;;;5.72;3.38;;;24.90;65.00;;;;;;4866240;28;87917;-85
2023/08/15 04:16:53;;;;;;;4.78;3.17;;;24.90;65.00;;;;;;4865752;28;87017;-85
2023/08/15 04:19:19;;;;;;;5.43;3.08;;;24.90;64.90;;;;;;4866907;28;87737;-85
2023/08/15 04:21:45;;;;;;;5.22;3.30;;;24.90;64.90;;;;;;4866753;28;87267;-85
2023/08/15 04:24:10;;;;;;;4.70;3.28;;;24.90;65.00;;;;;;4865925;28;87901;-85
2023/08/15 04:26:36;;;;;;;4.63;3.13;;;24.90;65.20;;;;;;4865160;28;87834;-85
2023/08/15 04:29:02;;;;;;;6.80;3.17;;;24.90;64.80;;;;;;4867082;28;87829;-86
2023/08/15 04:31:28;;;;;;;5.28;3.15;;;24.90;65.10;;;;;;4866842;28;87322;-85
2023/08/15 04:33:53;;;;;;;3.88;3.08;;;24.90;65.00;;;;;;4867518;28;87922;-85
2023/08/15 04:36:19;;;;;;;3.90;3.22;;;24.90;64.90;;;;;;4867986;28;88573;-85
2023/08/15 04:38:44;;;;;;;4.78;3.28;;;24.90;64.90;;;;;;4869452;28;88584;-85
2023/08/15 04:41:10;;;;;;;4.35;3.17;;;24.90;65.00;;;;;;4868881;28;87611;-85
2023/08/15 04:43:37;;;;;;;3.72;2.88;;;24.90;65.10;;;;;;4868896;28;88023;-84
2023/08/15 04:46:02;;;;;;;4.57;3.17;;;24.90;65.20;;;;;;4865809;28;89779;-85
2023/08/15 04:48:28;;;;;;;4.05;3.08;;;24.90;65.20;;;;;;4866815;28;89259;-85
2023/08/15 04:50:53;;;;;;;4.93;3.22;;;24.90;65.00;;;;;;4870362;28;87658;-85
2023/08/15 04:53:19;;;;;;;3.42;2.97;;;24.90;65.10;;;;;;4869954;28;86945;-85
2023/08/15 04:55:45;;;;;;;3.45;3.13;;;24.90;64.80;;;;;;4868471;28;88535;-85
2023/08/15 04:58:10;;;;;;;4.72;3.25;;;24.90;64.80;;;;;;4869196;28;88169;-84
2023/08/15 05:00:36;;;;;;;4.65;3.58;;;24.90;64.90;;;;;;4869472;28;89465;-85
2023/08/15 05:03:02;;;;;;;4.32;2.80;;;24.90;64.80;;;;;;4869653;28;88247;-85
2023/08/15 05:05:27;;;;;;;3.40;2.72;;;24.90;64.80;;;;;;4868197;28;88417;-85
2023/08/15 05:07:53;;;;;;;4.90;3.03;;;24.90;65.00;;;;;;4869743;28;87776;-85
2023/08/15 05:10:19;;;;;;;5.13;3.20;;;24.90;64.80;;;;;;4869871;28;87687;-84
2023/08/15 05:12:44;;;;;;;4.72;3.50;;;24.90;64.80;;;;;;4868368;28;88320;-85
2023/08/15 05:15:10;;;;;;;3.78;3.10;;;24.90;64.70;;;;;;4869386;28;87857;-85
2023/08/15 05:17:36;;;;;;;3.83;3.05;;;24.80;64.70;;;;;;4870380;28;88114;-85
2023/08/15 05:20:03;;;;;;;3.75;3.13;;;24.90;64.80;;;;;;4868592;28;87181;-85
2023/08/15 05:22:29;;;;;;;4.35;2.80;;;24.90;64.70;;;;;;4869549;28;87459;-85
2023/08/15 05:24:54;;;;;;;4.03;2.75;;;24.90;64.60;;;;;;4866180;28;90142;-85
2023/08/15 05:27:20;;;;;;;4.07;2.90;;;24.90;64.70;;;;;;4869020;28;88400;-86
2023/08/15 05:29:45;;;;;;;3.80;2.70;;;24.90;64.70;;;;;;4866323;28;87280;-85
2023/08/15 05:32:11;;;;;;;4.05;3.08;;;24.90;64.70;;;;;;4899212;28;89206;-85
2023/08/15 05:34:37;;;;;;;3.25;2.70;;;24.90;64.60;;;;;;4868645;28;87826;-85
2023/08/15 05:37:02;;;;;;;5.00;3.10;;;24.90;64.70;;;;;;4868235;28;88549;-85
2023/08/15 05:39:28;;;;;;;3.20;2.88;;;24.90;64.40;;;;;;4869804;28;87937;-85
2023/08/15 05:41:54;;;;;;;4.32;3.33;;;24.90;64.50;;;;;;4870475;28;87424;-84
2023/08/15 05:44:19;;;;;;;4.97;3.03;;;24.90;64.40;;;;;;4864992;28;90661;-84
2023/08/15 05:46:45;;;;;;;4.13;2.72;;;24.90;64.60;;;;;;4867183;28;88138;-85
2023/08/15 05:49:10;;;;;;;4.60;2.95;;;24.90;64.50;;;;;;4865844;28;88401;-85
2023/08/15 05:51:36;;;;;;;3.45;2.90;;;25.00;64.60;;;;;;4869024;28;87526;-85
2023/08/15 05:54:02;;;;;;;3.83;2.70;;;25.00;64.70;;;;;;4868814;28;87743;-85
2023/08/15 05:56:27;;;;;;;4.20;3.13;;;25.00;64.50;;;;;;4867855;28;87943;-85
2023/08/15 05:58:54;;;;;;;4.32;2.78;;;25.00;64.50;;;;;;4867942;28;86929;-85
2023/08/15 06:01:21;;;;;;;3.95;2.95;;;25.00;64.60;;;;;;4867537;28;87076;-85
2023/08/15 06:03:47;;;;;;;4.65;2.88;;;25.00;64.70;;;;;;4868056;28;87608;-85
2023/08/15 06:06:13;;;;;;;4.50;2.97;;;25.00;64.60;;;;;;4868637;28;89001;-85
2023/08/15 06:08:38;;;;;;;4.15;2.55;;;25.10;64.40;;;;;;4869013;28;87096;-85
2023/08/15 06:11:05;;;;;;;3.55;2.45;;;25.10;64.60;;;;;;4866461;28;87858;-85
2023/08/15 06:13:30;;;;;;;3.25;2.88;;;25.10;64.50;;;;;;4865381;28;91891;-85
2023/08/15 06:15:56;;;;;;;4.28;2.53;;;25.10;64.40;;;;;;4868013;28;89068;-85
2023/08/15 06:18:21;;;;;;;4.28;2.70;;;25.10;64.50;;;;;;4868265;28;87408;-85
2023/08/15 06:20:49;;;;;;;3.63;2.72;;;25.10;64.50;;;;;;4869439;28;88340;-85
2023/08/15 06:23:14;;;;;;;2.95;2.45;;;25.20;64.50;;;;;;4868728;28;88502;-85
2023/08/15 06:25:40;;;;;;;3.13;2.50;;;25.20;64.30;;;;;;4868304;28;87992;-85
2023/08/15 06:28:08;;;;;;;3.60;2.60;;;25.30;64.30;;;;;;4867346;28;88115;-85
2023/08/15 06:30:33;;;;;;;3.55;2.83;;;25.40;64.10;;;;;;4868701;28;87519;-85
2023/08/15 06:32:59;;;;;;;4.75;2.60;;;25.50;63.70;;;;;;4867873;28;87865;-85
2023/08/15 06:35:28;;;;;;;3.75;2.92;;;25.60;63.40;;;;;;4867471;28;88115;-85
2023/08/15 06:37:54;;;;;;;3.60;2.58;;;25.70;63.00;;;;;;4867736;28;89644;-85
2023/08/15 06:40:20;;;;;;;3.08;2.50;;;25.90;62.90;;;;;;4866166;28;87820;-84
2023/08/15 06:42:46;;;;;;;2.58;2.08;;;25.90;62.70;;;;;;4867977;28;87560;-85
2023/08/15 06:45:12;;;;;;;4.35;2.75;;;26.00;62.60;;;;;;4868296;28;88808;-85
2023/08/15 06:47:37;;;;;;;2.95;2.30;;;26.00;62.50;;;;;;4868735;28;88274;-85
2023/08/15 06:50:05;;;;;;;3.17;2.28;;;26.10;62.50;;;;;;4867783;28;88580;-90
2023/08/15 06:52:31;;;;;;;5.72;2.80;;;26.00;61.40;;;;;;4898962;28;88924;-90
2023/08/15 06:54:56;;;;;;;3.55;2.35;;;25.80;60.60;;;;;;4868345;28;87379;-89
2023/08/15 06:57:22;;;;;;;6.22;2.60;;;25.70;60.70;;;;;;4866152;28;87631;-89
2023/08/15 06:59:48;;;;;;;6.00;2.80;;;25.60;60.90;;;;;;4867237;28;88548;-90
2023/08/15 07:02:13;;;;;;;5.38;2.50;;;25.50;61.10;;;;;;4865300;28;90060;-89
2023/08/15 07:04:40;;;;;;;6.38;2.58;;;25.40;61.30;;;;;;4866444;28;91508;-90
2023/08/15 07:07:09;;;;;;;8.27;2.72;;;25.40;62.10;;;;;;4868818;28;87984;-89
2023/08/15 07:09:35;;;;;;;5.73;2.67;;;25.40;62.10;;;;;;4865833;28;87938;-88
2023/08/15 07:12:02;;;;;;;5.50;2.72;;;25.40;61.90;;;;;;4867701;28;87665;-91
2023/08/15 07:14:28;;;;;;;11.98;3.08;;;25.40;62.20;;;;;;4864761;28;88798;-92
2023/08/15 07:16:53;;;;;;;7.05;3.03;;;25.40;61.60;;;;;;4869613;28;87371;-93
2023/08/15 07:19:19;;;;;;;10.07;3.22;;;25.30;61.90;;;;;;4865931;28;87464;-90
2023/08/15 07:21:45;;;;;;;9.20;2.90;;;25.40;62.30;;;;;;4867533;28;88158;-91
2023/08/15 07:24:11;;;;;;;4.72;2.95;;;25.40;62.20;;;;;;4868874;28;88365;-90
2023/08/15 07:26:37;;;;;;;7.32;2.70;;;25.40;62.60;;;;;;4869686;28;88593;-91
2023/08/15 07:29:03;;;;;;;8.15;2.90;;;25.50;62.40;;;;;;4868062;28;87841;-92
2023/08/15 07:31:28;;;;;;;5.80;2.55;;;25.40;62.30;;;;;;4868208;28;90283;-91
2023/08/15 07:33:54;;;;;;;6.30;2.60;;;25.50;62.70;;;;;;4870111;28;87913;-92
2023/08/15 07:36:20;;;;;;;9.45;3.13;;;25.50;62.40;;;;;;4868512;28;87578;-91
2023/08/15 07:38:45;;;;;;;6.28;2.10;;;25.40;62.40;;;;;;4867515;28;87179;-90
2023/08/15 07:41:11;;;;;;;8.27;2.60;;;25.50;62.40;;;;;;4869540;28;88989;-92
2023/08/15 07:43:37;;;;;;;8.15;2.50;;;25.40;62.40;;;;;;4871172;28;87227;-92
2023/08/15 07:46:02;;;;;;;7.32;2.50;;;25.40;62.70;;;;;;4871430;28;87659;-90
2023/08/15 07:48:29;;;;;;;10.02;2.97;;;25.40;62.40;;;;;;4870796;28;87756;-90
2023/08/15 07:50:55;;;;;;;7.72;2.40;;;25.40;62.40;;;;;;4869419;28;90257;-89
2023/08/15 07:53:22;;;;;;;6.55;2.50;;;25.40;62.30;;;;;;4870476;28;87485;-88
2023/08/15 07:55:49;;;;;;;5.55;2.00;;;25.40;62.40;;;;;;4871112;28;87917;-91
2023/08/15 07:58:14;;;;;;;6.55;2.55;;;25.40;62.00;;;;;;4870952;28;87503;-89
2023/08/15 08:00:42;;;;;;;6.78;2.15;;;25.50;62.10;;;;;;4869436;28;88486;-90
2023/08/15 08:03:08;;;;;;;3.95;1.95;;;25.50;62.00;;;;;;4868931;28;87860;-91
2023/08/15 08:05:34;;;;;;;3.83;1.80;;;25.50;62.00;;;;;;4867804;28;87193;-88
2023/08/15 08:08:01;;;;;;;6.55;2.40;;;25.50;62.00;;;;;;4866948;28;87935;-87
2023/08/15 08:10:27;;;;;;;7.75;2.30;;;25.60;61.90;;;;;;4871186;28;87934;-88
2023/08/15 08:12:53;;;;;;;5.70;2.05;;;25.50;61.70;;;;;;4871857;28;90556;-90
2023/08/15 08:15:23;;;;;;;7.30;2.00;;;25.60;61.60;;;;;;4871739;28;88492;-91
2023/08/15 08:17:51;;;;;;;6.50;2.22;;;25.60;61.30;;;;;;4873562;28;87901;-89
2023/08/15 08:20:18;;;;;;;5.80;2.17;;;25.50;61.10;;;;;;4871151;28;88023;-89
2023/08/15 08:22:44;;;;;;;9.57;2.15;;;25.50;61.60;;;;;;4872928;28;90242;-88
2023/08/15 08:25:16;;;;;;;7.88;2.50;;;25.50;61.70;;;;;;4869704;28;87526;-87
2023/08/15 08:27:42;;;;;;;11.15;2.85;;;25.50;61.30;;;;;;4868714;28;87460;-87
2023/08/15 08:30:08;;;;;;;10.88;3.15;;;25.50;61.50;;;;;;4870782;28;88479;-87
2023/08/15 08:32:33;;;;;;;9.02;2.78;;;25.40;61.40;;;;;;4871613;28;88371;-88
2023/08/15 08:34:59;;;;;;;8.73;2.80;;;25.40;61.20;;;;;;4899954;28;87508;-87
2023/08/15 08:37:25;;;;;;;12.88;3.85;;;25.40;61.40;;;;;;4869902;28;87595;-88
2023/08/15 08:39:50;;;;;;;12.98;3.83;;;25.50;61.50;;;;;;4869372;28;89005;-85
2023/08/15 08:42:16;;;;;;;14.63;4.38;;;25.40;61.50;;;;;;4869836;28;88082;-89
2023/08/15 08:44:43;;;;;;;13.20;4.63;;;25.50;61.50;;;;;;4869356;28;87505;-87
2023/08/15 08:47:09;;;;;;;14.80;4.53;;;25.50;62.60;;;;;;4869154;28;88073;-88
2023/08/15 08:49:37;;;;;;;18.48;4.80;;;25.50;61.70;;;;;;4867896;28;90581;-88
2023/08/15 08:52:04;;;;;;;11.63;4.20;;;25.50;61.50;;;;;;4899335;28;90266;-89
2023/08/15 08:54:30;;;;;;;12.88;3.72;;;25.50;61.70;;;;;;4870538;28;87823;-89
2023/08/15 08:57:00;;;;;;;14.40;4.38;;;25.50;61.90;;;;;;4902182;28;89072;-89
2023/08/15 08:59:28;;;;;;;11.70;3.67;;;25.50;62.10;;;;;;4900348;28;90318;-87
2023/08/15 09:01:53;;;;;;;14.38;4.20;;;25.50;62.90;;;;;;4869037;28;88991;-88
2023/08/15 09:04:20;;;;;;;15.18;4.47;;;25.40;63.00;;;;;;4868416;28;89712;-88
2023/08/15 09:06:46;;;;;;;14.23;4.03;;;25.50;63.00;;;;;;4867979;28;89772;-89
2023/08/15 09:09:13;;;;;;;13.57;4.40;;;25.50;62.70;;;;;;4868756;28;88126;-89
2023/08/15 09:11:38;;;;;;;14.02;4.35;;;25.50;63.00;;;;;;4867319;28;88997;-89
2023/08/15 09:14:05;;;;;;;18.02;4.03;;;25.50;62.80;;;;;;4899557;28;87143;-89
2023/08/15 09:16:32;;;;;;;11.10;3.70;;;25.50;63.10;;;;;;4866852;28;90564;-89
2023/08/15 09:19:02;;;;;;;12.35;3.90;;;25.50;63.40;;;;;;4868172;28;87019;-90
2023/08/15 09:21:29;;;;;;;11.00;4.13;;;25.50;63.50;;;;;;4869239;28;87440;-89
2023/08/15 09:23:59;;;;;;;8.68;3.75;;;25.50;63.90;;;;;;4868230;28;87116;-91
2023/08/15 09:26:25;;;;;;;8.27;3.03;;;25.50;64.10;;;;;;4868254;28;87414;-90
2023/08/15 09:28:51;;;;;;;8.25;3.13;;;25.50;64.00;;;;;;4868559;28;90141;-91
2023/08/15 09:31:18;;;;;;;8.88;3.60;;;25.50;63.80;;;;;;4870299;28;88171;-91
2023/08/15 09:33:44;;;;;;;12.77;3.38;;;25.50;64.20;;;;;;4869300;28;88073;-90
2023/08/15 09:36:10;;;;;;;10.35;3.85;;;25.50;64.30;;;;;;4869725;28;87541;-90
2023/08/15 09:38:37;;;;;;;7.68;3.42;;;25.50;64.20;;;;;;4868899;28;91496;-92
2023/08/15 09:41:03;;;;;;;8.13;3.47;;;25.50;64.20;;;;;;4869574;28;88248;-91
2023/08/15 09:43:30;;;;;;;7.78;3.42;;;25.60;64.40;;;;;;4868140;28;87874;-92
2023/08/15 09:45:59;;;;;;;8.32;3.08;;;25.60;64.70;;;;;;4867430;28;88511;-91
2023/08/15 09:48:28;;;;;;;7.35;3.20;;;25.60;64.70;;;;;;4868251;28;91132;-90
2023/08/15 09:50:56;;;;;;;8.38;3.60;;;25.50;64.70;;;;;;4901531;28;90147;-92
2023/08/15 09:53:25;;;;;;;6.53;3.10;;;25.60;65.50;;;;;;4870288;28;88994;-92
2023/08/15 09:55:51;;;;;;;8.15;3.00;;;25.60;64.70;;;;;;4870774;28;87925;-93
2023/08/15 09:58:17;;;;;;;11.25;3.25;;;25.60;64.60;;;;;;4868637;28;90622;-92
2023/08/15 10:00:45;;;;;;;7.28;2.88;;;25.60;64.30;;;;;;4869016;28;88169;-89
2023/08/15 10:03:23;;;;;;;9.23;2.95;;;25.60;64.90;;;;;;4868872;28;87282;-92
2023/08/15 10:05:54;;;;;;;6.32;2.92;;;25.60;64.80;;;;;;4869575;28;87656;-88
2023/08/15 10:08:21;;;;;;;7.03;2.90;;;25.60;64.50;;;;;;4867968;28;87825;-89
2023/08/15 10:10:51;;;;;;;5.13;2.38;;;25.60;64.60;;;;;;4868706;28;88308;-88
2023/08/15 10:13:20;;;;;;;8.70;3.20;;;25.60;64.80;;;;;;4866327;28;87186;-89
2023/08/15 10:15:47;;;;;;;10.32;3.00;;;25.50;64.80;;;;;;4865786;28;89274;-88
2023/08/15 10:18:13;;;;;;;7.05;2.88;;;25.60;64.70;;;;;;4867571;28;88654;-89
2023/08/15 10:20:39;;;;;;;9.45;3.05;;;25.50;64.60;;;;;;4868251;28;90179;-90
2023/08/15 10:23:09;;;;;;;6.55;2.50;;;25.50;64.40;;;;;;4867285;28;88319;-90
2023/08/15 10:25:37;;;;;;;9.23;3.03;;;25.50;64.70;;;;;;4866613;28;89993;-90
2023/08/15 10:28:09;;;;;;;7.15;2.67;;;25.60;64.80;;;;;;4867735;28;90765;-88
2023/08/15 10:30:46;;;;;;;6.82;2.67;;;25.50;64.50;;;;;;4868308;28;87733;-89
2023/08/15 10:33:16;;;;;;;6.90;2.47;;;25.50;64.50;;;;;;4868715;28;87313;-88
2023/08/15 10:35:54;;;;;;;8.57;2.50;;;25.60;64.40;;;;;;4870090;28;87425;-90
2023/08/15 10:38:30;;;;;;;4.80;2.47;;;25.60;64.20;;;;;;4868068;28;88534;-93
2023/08/15 10:41:06;;;;;;;4.53;2.35;;;25.60;64.20;;;;;;4868412;28;87918;-88
2023/08/15 10:43:36;;;;;;;5.97;2.22;;;25.60;63.90;;;;;;4867387;28;88186;-89
2023/08/15 10:46:04;;;;;;;10.15;2.78;;;25.60;64.10;;;;;;4867532;28;89054;-89
2023/08/15 10:48:50;;;;;;;5.80;2.88;;;25.60;64.40;;;;;;4869206;28;87499;-89
2023/08/15 10:51:27;;;;;;;6.30;2.25;;;25.50;64.10;;;;;;4869356;28;87748;-88
2023/08/15 10:53:54;;;;;;;7.60;2.80;;;25.50;64.40;;;;;;4868583;28;88232;-89
2023/08/15 10:56:28;;;;;;;8.43;2.97;;;25.50;64.40;;;;;;4867477;28;89588;-89
2023/08/15 10:58:54;;;;;;;3.53;2.22;;;25.50;64.40;;;;;;4868040;28;87570;-88
2023/08/15 11:01:22;;;;;;;7.68;2.25;;;25.50;64.20;;;;;;4868728;28;87287;-88
2023/08/15 11:03:49;;;;;;;8.65;3.65;;;25.70;64.10;;;;;;4867968;28;88045;-89
2023/08/15 11:06:15;;;;;;;8.00;2.72;;;25.80;63.90;;;;;;4895747;28;89463;-88
2023/08/15 11:08:42;;;;;;;8.40;2.72;;;25.80;63.60;;;;;;4869344;28;89258;-90
2023/08/15 11:11:10;;;;;;;8.00;2.50;;;25.90;63.50;;;;;;4869871;28;89743;-89
2023/08/15 11:13:42;;;;;;;6.43;2.30;;;26.00;63.20;;;;;;4870439;28;87638;-89
2023/08/15 11:16:08;;;;;;;12.27;2.88;;;26.00;62.80;;;;;;4870159;28;87493;-90
2023/08/15 11:18:36;;;;;;;8.20;2.60;;;26.10;62.90;;;;;;4899907;28;90247;-88
2023/08/15 11:21:02;;;;;;;7.25;2.55;;;26.10;62.50;;;;;;4867701;28;90658;-87
2023/08/15 11:23:29;;;;;;;4.75;2.33;;;26.10;62.10;;;;;;4868524;28;87180;-88
2023/08/15 11:26:04;;;;;;;5.05;2.60;;;26.10;62.20;;;;;;4866045;28;86740;-87
2023/08/15 11:28:31;;;;;;;6.22;2.67;;;26.20;62.40;;;;;;4868296;28;87576;-87
2023/08/15 11:30:58;;;;;;;6.97;2.63;;;26.10;62.50;;;;;;4900204;28;90219;-88
2023/08/15 11:33:24;;;;;;;8.45;2.13;;;26.10;63.10;;;;;;4868653;28;88181;-87
2023/08/15 11:35:50;;;;;;;6.25;2.75;;;26.20;63.50;;;;;;4870215;28;87603;-87
2023/08/15 11:38:20;;;;;;;4.20;2.47;;;26.20;63.50;;;;;;4897974;28;90407;-88
2023/08/15 11:40:45;;;;;;;6.13;2.28;;;26.20;63.70;;;;;;4867010;28;88775;-88
2023/08/15 11:43:12;;;;;;;7.93;2.65;;;26.20;63.80;;;;;;4872188;28;87788;-88
2023/08/15 11:45:41;;;;;;;7.63;2.35;;;26.10;63.90;;;;;;4873131;28;87651;-89
2023/08/15 11:48:08;;;;;;;6.93;2.80;;;26.10;64.20;;;;;;4872998;28;87862;-91
2023/08/15 11:50:35;;;;;;;6.75;2.75;;;26.10;64.40;;;;;;4872948;28;88977;-88
2023/08/15 11:53:08;;;;;;;6.32;3.00;;;26.10;64.80;;;;;;4871819;28;87672;-89
2023/08/15 11:55:35;;;;;;;4.78;2.30;;;26.10;64.80;;;;;;4870761;28;91064;-89
2023/08/15 11:58:02;;;;;;;6.22;2.35;;;26.10;64.30;;;;;;4869602;28;90770;-88
2023/08/15 12:00:27;;;;;;;14.05;7.47;;;26.10;64.20;;;;;;4870568;28;91326;-89
2023/08/15 12:02:54;;;;;;;12.57;4.47;;;26.10;64.10;;;;;;4903609;28;87742;-90
2023/08/15 12:05:20;;;;;;;11.63;4.50;;;26.10;63.60;;;;;;4901566;28;89274;-89
2023/08/15 12:07:48;;;;;;;11.55;5.20;;;26.00;63.60;;;;;;4872146;28;87598;-89
2023/08/15 12:10:15;;;;;;;10.52;3.60;;;26.00;63.50;;;;;;4870483;28;91317;-88
2023/08/15 12:12:45;;;;;;;12.25;4.30;;;26.00;63.60;;;;;;4870400;28;88348;-89
2023/08/15 12:15:15;;;;;;;12.45;3.42;;;26.00;63.30;;;;;;4901350;28;89941;-88
2023/08/15 12:17:41;;;;;;;10.45;4.35;;;26.10;63.00;;;;;;4869501;28;90428;-88
2023/08/15 12:20:11;;;;;;;13.60;4.57;;;26.10;62.80;;;;;;4868276;28;90221;-92
2023/08/15 12:22:44;;;;;;;16.90;5.13;;;26.10;63.00;;;;;;4870422;28;88702;-89
2023/08/15 12:25:10;;;;;;;20.08;7.95;;;26.10;63.10;;;;;;4901063;28;89648;-89
2023/08/15 12:27:36;;;;;;;15.65;6.18;;;26.20;63.80;;;;;;4872869;28;90382;-91
2023/08/15 12:30:03;;;;;;;14.73;6.10;;;26.20;63.10;;;;;;4873240;28;90406;-91
2023/08/15 12:32:29;;;;;;;14.95;5.65;;;26.20;63.00;;;;;;4874982;28;87263;-93
2023/08/15 12:34:55;;;;;;;17.60;5.72;;;26.20;63.00;;;;;;4875467;28;88162;-92
2023/08/15 12:37:21;;;;;;;11.73;5.22;;;26.20;63.70;;;;;;4890584;28;89284;-88
2023/08/15 12:39:47;;;;;;;11.50;4.78;;;26.20;63.50;;;;;;4875313;28;88577;-92
2023/08/15 12:42:14;;;;;;;13.02;5.07;;;26.20;63.80;;;;;;4873676;28;87737;-92
2023/08/15 12:44:42;;;;;;;10.25;4.10;;;26.20;63.90;;;;;;4874878;28;87367;-91